West Park, Florida
Current Conditions -  °F | °C
As of 3:53 PM on Saturday 25 Oct 2014 (Local Time) from KHWO Reporting Station
Scattered Clouds Scattered Clouds  
Wind Chill: 81°   Ceiling: Unl
Heat Index: 82°   Visibility: 10mi
Dew Point: 60°   Wind: 14mph
Humidity: 49%   Direction: 50°NE
Pressure: 29.89"   Gusts: 20mph
Location:  25.9895°N, 80.2144°W
Report Text: KHWO 251953Z 05012G17KT 10SM SCT050 27/16 A2989 RMK AO2 SLP121 T02720156
Loading
Personal Weather Stations






























Interactive Weather Map
Tropical Storm Tracking
New forecast layout! Learn more

10-Day Weather Forecast

Advertisements
Track Severe Weather on mobile